Time;durP1;ratioP1;P1;durP2;ratioP2;P2;SDS_P1;SDS_P2;PMS_P1;PMS_P2;Temp;Humidity;BMP_temperature;BMP_pressure;BME280_temperature;BME280_humidity;BME280_pressure;Samples;Min_cycle;Max_cycle;Signal;HPM_P1;HPM_P2
2023/03/07 00:00:49;;;;;;;3.40;1.58;;;6.30;99.90;;;;;;5039087;28;20059;-73
2023/03/07 00:03:16;;;;;;;4.40;1.73;;;6.30;99.90;;;;;;5038957;28;20472;-74
2023/03/07 00:05:42;;;;;;;4.47;1.70;;;6.30;99.90;;;;;;5038459;28;20120;-74
2023/03/07 00:08:08;;;;;;;3.00;1.42;;;6.30;99.90;;;;;;5038286;28;20558;-73
2023/03/07 00:10:34;;;;;;;4.57;1.70;;;6.30;99.90;;;;;;5038066;28;20507;-72
2023/03/07 00:13:00;;;;;;;2.35;1.60;;;6.30;99.90;;;;;;5038887;28;20069;-74
2023/03/07 00:15:25;;;;;;;4.18;1.60;;;6.40;99.90;;;;;;5037664;28;20031;-73
2023/03/07 00:17:51;;;;;;;5.25;2.03;;;6.40;99.90;;;;;;5036822;28;20127;-74
2023/03/07 00:20:17;;;;;;;2.92;1.50;;;6.40;99.90;;;;;;5038854;28;20041;-74
2023/03/07 00:22:45;;;;;;;4.95;1.73;;;6.50;99.90;;;;;;5036385;28;20286;-74
2023/03/07 00:25:11;;;;;;;2.97;1.98;;;6.50;99.90;;;;;;5037755;28;20027;-74
2023/03/07 00:27:37;;;;;;;4.75;2.20;;;6.50;99.90;;;;;;5046740;28;20040;-74
2023/03/07 00:30:03;;;;;;;7.35;2.00;;;6.50;99.90;;;;;;5035518;28;20036;-73
2023/03/07 00:32:29;;;;;;;3.33;1.67;;;6.50;99.90;;;;;;5019771;28;20436;-74
2023/03/07 00:34:55;;;;;;;2.55;1.67;;;6.50;99.90;;;;;;5022067;28;20118;-74
2023/03/07 00:37:21;;;;;;;5.55;1.75;;;6.50;99.90;;;;;;5037621;28;20487;-74
2023/03/07 00:39:47;;;;;;;2.50;1.85;;;6.50;99.90;;;;;;5040041;28;20468;-74
2023/03/07 00:42:13;;;;;;;7.65;2.13;;;6.50;99.90;;;;;;5044025;28;20346;-74
2023/03/07 00:44:38;;;;;;;7.75;2.25;;;6.60;99.90;;;;;;5058444;28;20020;-73
2023/03/07 00:47:04;;;;;;;4.28;1.50;;;6.60;99.90;;;;;;5040089;28;20846;-73
2023/03/07 00:49:29;;;;;;;4.38;1.45;;;6.60;99.90;;;;;;5035422;28;20036;-74
2023/03/07 00:51:55;;;;;;;4.88;1.70;;;6.50;99.90;;;;;;5036199;28;20041;-74
2023/03/07 00:54:21;;;;;;;3.67;1.60;;;6.40;99.90;;;;;;5037582;28;20032;-74
2023/03/07 00:56:47;;;;;;;5.68;1.77;;;6.40;99.90;;;;;;5037989;28;20427;-73
2023/03/07 00:59:12;;;;;;;3.05;1.40;;;6.40;99.90;;;;;;5043401;28;20052;-74
2023/03/07 01:01:38;;;;;;;4.10;1.60;;;6.40;99.90;;;;;;5051252;28;20373;-74
2023/03/07 01:04:04;;;;;;;3.15;1.42;;;6.50;99.90;;;;;;5035554;28;20381;-73
2023/03/07 01:06:31;;;;;;;3.67;1.40;;;6.50;99.90;;;;;;5033543;28;20028;-73
2023/03/07 01:09:03;;;;;;;2.20;1.38;;;6.60;99.90;;;;;;5037116;28;20048;-75
2023/03/07 01:11:29;;;;;;;5.45;1.73;;;6.50;99.90;;;;;;5035093;28;20040;-73
2023/03/07 01:13:59;;;;;;;2.22;1.20;;;6.50;99.90;;;;;;5018434;28;20037;-74
2023/03/07 01:16:27;;;;;;;4.93;1.45;;;6.50;99.90;;;;;;5034655;28;20073;-73
2023/03/07 01:18:56;;;;;;;5.03;1.63;;;6.50;99.90;;;;;;5046706;28;20108;-74
2023/03/07 01:21:28;;;;;;;3.40;1.80;;;6.50;99.90;;;;;;5037419;28;20427;-73
2023/03/07 01:23:54;;;;;;;3.42;1.75;;;6.50;99.90;;;;;;5036700;28;20128;-73
2023/03/07 01:26:22;;;;;;;2.35;1.80;;;6.50;99.90;;;;;;5036248;28;20041;-74
2023/03/07 01:28:50;;;;;;;2.53;1.67;;;6.40;99.90;;;;;;5036139;28;20044;-73
2023/03/07 01:31:16;;;;;;;3.75;1.75;;;6.40;99.90;;;;;;5037609;28;20116;-74
2023/03/07 01:33:41;;;;;;;3.92;1.50;;;6.40;99.90;;;;;;5047352;28;20097;-74
2023/03/07 01:36:24;;;;;;;3.45;1.80;;;6.40;99.90;;;;;;5040090;28;20041;-73
2023/03/07 01:38:54;;;;;;;4.80;1.98;;;6.30;99.90;;;;;;5035963;28;20037;-74
2023/03/07 01:41:20;;;;;;;6.60;2.63;;;6.40;99.90;;;;;;5036228;28;20127;-74
2023/03/07 01:43:46;;;;;;;2.72;1.88;;;6.30;99.90;;;;;;5036907;28;20308;-74
2023/03/07 01:46:20;;;;;;;4.80;1.88;;;6.30;99.90;;;;;;5015843;28;20025;-74
2023/03/07 01:49:06;;;;;;;4.55;1.80;;;6.30;99.90;;;;;;5029438;28;20029;-74
2023/03/07 01:51:35;;;;;;;4.32;1.70;;;6.30;99.90;;;;;;5037272;28;20056;-74
2023/03/07 01:54:01;;;;;;;5.35;2.38;;;6.30;99.90;;;;;;5034017;28;20025;-74
2023/03/07 01:56:27;;;;;;;6.47;1.80;;;6.30;99.90;;;;;;5032868;28;20080;-73
2023/03/07 01:58:54;;;;;;;5.57;2.30;;;6.30;99.90;;;;;;5034858;28;20724;-74
2023/03/07 02:01:21;;;;;;;3.50;1.70;;;6.20;99.90;;;;;;5033565;28;20208;-74
2023/03/07 02:04:05;;;;;;;8.38;2.10;;;6.20;99.90;;;;;;5034520;28;20041;-74
2023/03/07 02:06:34;;;;;;;4.95;2.20;;;6.10;99.90;;;;;;5032013;28;20089;-74
2023/03/07 02:09:01;;;;;;;3.90;1.73;;;6.10;99.90;;;;;;5053226;28;20095;-73
2023/03/07 02:11:27;;;;;;;4.88;1.98;;;6.10;99.90;;;;;;5037080;28;20114;-74
2023/03/07 02:13:53;;;;;;;7.32;2.20;;;6.00;99.90;;;;;;5032907;28;20029;-74
2023/03/07 02:16:19;;;;;;;7.38;2.60;;;6.00;99.90;;;;;;5034019;28;20280;-74
2023/03/07 02:18:48;;;;;;;4.72;1.60;;;5.90;99.90;;;;;;5016698;28;20534;-74
2023/03/07 02:21:30;;;;;;;4.07;1.67;;;6.00;99.90;;;;;;5032048;28;20527;-74
2023/03/07 02:24:10;;;;;;;5.10;2.05;;;5.90;99.90;;;;;;5035483;28;20032;-73
2023/03/07 02:26:44;;;;;;;7.55;2.00;;;5.90;99.90;;;;;;5036707;28;20590;-73
2023/03/07 02:29:11;;;;;;;5.78;2.60;;;5.90;99.90;;;;;;5033827;28;20032;-74
2023/03/07 02:31:36;;;;;;;6.28;2.13;;;5.90;99.90;;;;;;5025881;28;20627;-74
2023/03/07 02:34:02;;;;;;;6.22;2.20;;;5.90;99.90;;;;;;5023955;28;20104;-73
2023/03/07 02:36:35;;;;;;;6.43;1.83;;;5.90;99.90;;;;;;5033150;28;20036;-73
2023/03/07 02:39:05;;;;;;;7.95;2.20;;;5.90;99.90;;;;;;5027729;28;20157;-74
2023/03/07 02:41:31;;;;;;;5.33;1.67;;;5.90;99.90;;;;;;5043936;28;20032;-74
2023/03/07 02:43:57;;;;;;;3.38;1.80;;;6.00;99.90;;;;;;5057062;28;20029;-74
2023/03/07 02:46:23;;;;;;;7.45;1.75;;;6.00;99.90;;;;;;5037368;28;20194;-73
2023/03/07 02:48:48;;;;;;;6.55;1.73;;;6.00;99.90;;;;;;5037392;28;20154;-74
2023/03/07 02:51:14;;;;;;;2.03;1.58;;;6.10;99.90;;;;;;5036769;28;20037;-74
2023/03/07 02:53:39;;;;;;;5.35;1.80;;;6.10;99.90;;;;;;5035267;28;20470;-73
2023/03/07 02:56:06;;;;;;;9.20;2.40;;;6.10;99.90;;;;;;5035318;28;20116;-74
2023/03/07 02:58:32;;;;;;;2.80;1.73;;;6.10;99.90;;;;;;5034368;28;20093;-73
2023/03/07 03:00:58;;;;;;;4.97;1.90;;;6.10;99.90;;;;;;5009816;28;20139;-73
2023/03/07 03:03:24;;;;;;;4.25;1.65;;;6.10;99.90;;;;;;5037203;28;20181;-73
2023/03/07 03:05:49;;;;;;;4.78;1.85;;;6.20;99.90;;;;;;5036416;28;20029;-73
2023/03/07 03:08:15;;;;;;;4.40;1.77;;;6.20;99.90;;;;;;5036163;28;20083;-74
2023/03/07 03:10:40;;;;;;;5.93;1.88;;;6.20;99.90;;;;;;5034466;28;20492;-74
2023/03/07 03:13:06;;;;;;;7.90;1.63;;;6.10;99.90;;;;;;5038295;28;20149;-73
2023/03/07 03:15:32;;;;;;;5.97;1.92;;;6.20;99.90;;;;;;5047965;28;20037;-74
2023/03/07 03:17:58;;;;;;;5.35;1.85;;;6.10;99.90;;;;;;5044580;28;20025;-73
2023/03/07 03:20:24;;;;;;;3.50;1.83;;;6.20;99.90;;;;;;5038394;28;20360;-73
2023/03/07 03:22:51;;;;;;;6.78;2.28;;;6.10;99.90;;;;;;5032712;28;20029;-74
2023/03/07 03:25:17;;;;;;;4.38;1.80;;;6.10;99.90;;;;;;5030786;28;20346;-74
2023/03/07 03:27:43;;;;;;;5.82;2.38;;;6.10;99.90;;;;;;5039112;28;20029;-74
2023/03/07 03:30:10;;;;;;;6.07;2.17;;;6.10;99.90;;;;;;5033408;28;20129;-73
2023/03/07 03:32:37;;;;;;;5.72;1.75;;;6.10;99.90;;;;;;5037817;28;20531;-74
2023/03/07 03:35:04;;;;;;;5.40;2.17;;;6.10;99.90;;;;;;5040413;28;20064;-73
2023/03/07 03:37:31;;;;;;;3.83;1.63;;;6.10;99.90;;;;;;5039973;28;20037;-74
2023/03/07 03:39:56;;;;;;;8.00;1.98;;;6.10;99.90;;;;;;5036312;28;20029;-74
2023/03/07 03:42:22;;;;;;;6.15;1.98;;;6.20;99.90;;;;;;5041821;28;20089;-74
2023/03/07 03:44:48;;;;;;;4.78;1.95;;;6.20;99.90;;;;;;5049489;28;20048;-74
2023/03/07 03:47:14;;;;;;;4.90;1.77;;;6.20;99.90;;;;;;5030299;28;20470;-74
2023/03/07 03:49:40;;;;;;;2.30;1.50;;;6.20;99.90;;;;;;5017793;28;20029;-74
2023/03/07 03:52:05;;;;;;;3.22;1.80;;;6.20;99.90;;;;;;5039198;28;20555;-74
2023/03/07 03:54:31;;;;;;;4.97;1.77;;;6.20;99.90;;;;;;5039328;28;20468;-74
2023/03/07 03:56:57;;;;;;;4.93;2.03;;;6.20;99.90;;;;;;5036070;28;20393;-74
2023/03/07 03:59:22;;;;;;;6.00;1.90;;;6.30;99.90;;;;;;5030939;28;20060;-73
2023/03/07 04:01:48;;;;;;;3.40;1.40;;;6.30;99.90;;;;;;5040316;28;20710;-74
2023/03/07 04:04:14;;;;;;;3.47;1.70;;;6.30;99.90;;;;;;5040010;28;20061;-74
2023/03/07 04:06:41;;;;;;;5.32;2.22;;;6.30;99.90;;;;;;5018577;28;20685;-73
2023/03/07 04:09:08;;;;;;;7.22;1.90;;;6.30;99.90;;;;;;5035874;28;20021;-74
2023/03/07 04:11:34;;;;;;;7.25;2.28;;;6.30;99.90;;;;;;5016987;28;20037;-74
2023/03/07 04:14:00;;;;;;;10.25;2.17;;;6.30;99.90;;;;;;5018405;28;20373;-73
2023/03/07 04:16:25;;;;;;;3.78;1.90;;;6.30;99.90;;;;;;5034190;28;20024;-73
2023/03/07 04:18:51;;;;;;;2.75;1.48;;;6.30;99.90;;;;;;5037246;28;20051;-74
2023/03/07 04:21:17;;;;;;;5.93;2.17;;;6.30;99.90;;;;;;5037040;28;20037;-74
2023/03/07 04:23:43;;;;;;;4.43;1.67;;;6.30;99.90;;;;;;5030941;28;20060;-73
2023/03/07 04:26:09;;;;;;;3.97;1.70;;;6.30;99.90;;;;;;5024594;28;20331;-74
2023/03/07 04:28:43;;;;;;;5.78;1.58;;;6.30;99.90;;;;;;5018882;28;20029;-74
2023/03/07 04:31:14;;;;;;;5.07;1.65;;;6.30;99.90;;;;;;5025435;28;20116;-74
2023/03/07 04:33:40;;;;;;;5.03;2.27;;;6.30;99.90;;;;;;5001480;28;20072;-74
2023/03/07 04:36:06;;;;;;;8.70;2.15;;;6.30;99.90;;;;;;5004326;28;20017;-74
2023/03/07 04:38:32;;;;;;;9.00;4.22;;;6.20;99.90;;;;;;5029477;28;20033;-74
2023/03/07 04:40:57;;;;;;;14.32;5.40;;;6.20;99.90;;;;;;5048940;28;20036;-73
2023/03/07 04:43:23;;;;;;;13.73;6.30;;;6.20;99.90;;;;;;5037066;28;20087;-74
2023/03/07 04:45:51;;;;;;;16.60;7.60;;;6.20;99.90;;;;;;5037977;28;20843;-73
2023/03/07 04:48:16;;;;;;;13.45;7.13;;;6.20;99.90;;;;;;5027242;28;20044;-74
2023/03/07 04:50:42;;;;;;;13.60;6.75;;;6.30;99.90;;;;;;5029452;28;20029;-73
2023/03/07 04:53:07;;;;;;;8.13;3.88;;;6.30;99.90;;;;;;5038284;28;20549;-74
2023/03/07 04:55:33;;;;;;;8.65;4.88;;;6.30;99.90;;;;;;5037682;28;20112;-73
2023/03/07 04:57:59;;;;;;;7.57;4.18;;;6.30;99.90;;;;;;5050578;28;20028;-74
2023/03/07 05:00:24;;;;;;;10.00;3.33;;;6.30;99.90;;;;;;5037177;28;20377;-73
2023/03/07 05:02:50;;;;;;;5.93;2.90;;;6.20;99.90;;;;;;5035083;28;20278;-74
2023/03/07 05:05:16;;;;;;;6.22;2.15;;;6.20;99.90;;;;;;5036759;28;20053;-74
2023/03/07 05:07:42;;;;;;;4.15;2.30;;;6.20;99.90;;;;;;5038996;28;20036;-73
2023/03/07 05:10:09;;;;;;;7.10;2.70;;;6.20;99.90;;;;;;5036981;28;20369;-73
2023/03/07 05:12:34;;;;;;;4.28;2.13;;;6.20;99.90;;;;;;5038008;28;20036;-74
2023/03/07 05:15:00;;;;;;;8.15;2.40;;;6.20;99.90;;;;;;5047825;28;20542;-74
2023/03/07 05:17:26;;;;;;;5.60;1.83;;;6.10;99.90;;;;;;5055984;28;20123;-74
2023/03/07 05:19:53;;;;;;;4.15;1.73;;;6.20;99.90;;;;;;5048778;28;20139;-73
2023/03/07 05:22:19;;;;;;;4.03;2.85;;;6.10;99.90;;;;;;5015799;28;20500;-74
2023/03/07 05:24:45;;;;;;;5.80;2.85;;;6.10;99.90;;;;;;5026956;28;20087;-74
2023/03/07 05:27:11;;;;;;;6.10;2.15;;;6.10;99.90;;;;;;5034059;28;20041;-73
2023/03/07 05:29:36;;;;;;;3.80;1.95;;;6.10;99.90;;;;;;5019519;28;20040;-73
2023/03/07 05:32:02;;;;;;;3.80;1.85;;;6.10;99.90;;;;;;5047834;28;20041;-73
2023/03/07 05:34:28;;;;;;;3.92;1.65;;;6.10;99.90;;;;;;5053694;28;20036;-75
2023/03/07 05:36:54;;;;;;;2.95;1.60;;;6.10;99.90;;;;;;5025613;28;20037;-74
2023/03/07 05:39:19;;;;;;;3.90;1.75;;;6.10;99.90;;;;;;5017111;28;20171;-74
2023/03/07 05:41:45;;;;;;;4.25;1.88;;;6.10;99.90;;;;;;5034736;28;20020;-74
2023/03/07 05:44:10;;;;;;;3.80;1.90;;;6.10;99.90;;;;;;5034125;28;20536;-73
2023/03/07 05:46:36;;;;;;;3.92;1.80;;;6.10;99.90;;;;;;5034324;28;20033;-74
2023/03/07 05:49:02;;;;;;;4.53;1.80;;;6.10;99.90;;;;;;5032479;28;20040;-73
2023/03/07 05:51:27;;;;;;;4.80;1.88;;;6.10;99.90;;;;;;5034110;28;20055;-73
2023/03/07 05:53:53;;;;;;;2.00;1.45;;;6.20;99.90;;;;;;5034215;28;20032;-74
2023/03/07 05:56:18;;;;;;;4.32;2.00;;;6.20;99.90;;;;;;5017183;28;20041;-73
2023/03/07 05:58:44;;;;;;;4.72;2.03;;;6.20;99.90;;;;;;5034961;28;20133;-74
2023/03/07 06:01:09;;;;;;;4.00;2.10;;;6.20;99.90;;;;;;5033635;28;20480;-74
2023/03/07 06:03:35;;;;;;;3.33;2.00;;;6.20;99.90;;;;;;5034295;28;20043;-73
2023/03/07 06:06:01;;;;;;;2.17;1.73;;;6.20;99.90;;;;;;5045689;28;20082;-74
2023/03/07 06:08:27;;;;;;;2.97;1.80;;;6.20;99.90;;;;;;5019810;28;20123;-74
2023/03/07 06:10:53;;;;;;;3.30;1.90;;;6.20;99.90;;;;;;5034077;28;20576;-73
2023/03/07 06:13:22;;;;;;;2.75;1.70;;;6.30;99.90;;;;;;5007838;28;20072;-74
2023/03/07 06:15:52;;;;;;;4.57;1.70;;;6.20;99.90;;;;;;5020696;28;20029;-74
2023/03/07 06:18:18;;;;;;;4.50;1.80;;;6.20;99.90;;;;;;5039881;28;20532;-74
2023/03/07 06:20:44;;;;;;;5.72;1.90;;;6.20;99.90;;;;;;5041382;28;20526;-74
2023/03/07 06:23:09;;;;;;;2.75;1.90;;;6.20;99.90;;;;;;5041611;28;20029;-74
2023/03/07 06:25:35;;;;;;;5.55;1.95;;;6.10;99.90;;;;;;5029186;28;20040;-73
2023/03/07 06:28:01;;;;;;;3.63;2.30;;;6.00;99.90;;;;;;5036815;28;20024;-74
2023/03/07 06:30:27;;;;;;;4.03;2.03;;;5.90;99.90;;;;;;5037217;28;20049;-74
2023/03/07 06:32:53;;;;;;;2.08;1.77;;;5.80;99.90;;;;;;5039793;28;20044;-73
2023/03/07 06:35:19;;;;;;;1.65;1.55;;;5.60;99.90;;;;;;5040968;28;20408;-73
2023/03/07 06:37:44;;;;;;;2.80;1.67;;;5.30;99.90;;;;;;5039056;28;20036;-73
2023/03/07 06:40:10;;;;;;;2.30;2.00;;;5.30;99.90;;;;;;5055316;28;20135;-74
2023/03/07 06:42:37;;;;;;;3.28;2.30;;;5.10;99.90;;;;;;5039030;28;20021;-73
2023/03/07 06:45:03;;;;;;;2.88;2.63;;;4.90;99.90;;;;;;5038274;28;20033;-73
2023/03/07 06:47:28;;;;;;;4.43;2.67;;;4.90;99.90;;;;;;5023099;28;20036;-74
2023/03/07 06:49:54;;;;;;;3.55;2.97;;;4.90;99.90;;;;;;5033528;28;20499;-74
2023/03/07 06:52:21;;;;;;;3.30;2.75;;;4.90;99.90;;;;;;5039007;28;20045;-74
2023/03/07 06:54:46;;;;;;;3.30;2.92;;;4.90;99.90;;;;;;5040775;28;20036;-74
2023/03/07 06:57:12;;;;;;;4.70;3.30;;;4.90;99.90;;;;;;5038063;28;20713;-74
2023/03/07 06:59:38;;;;;;;5.05;3.30;;;4.90;99.90;;;;;;5022642;28;20040;-74
2023/03/07 07:02:03;;;;;;;5.25;3.63;;;4.80;99.90;;;;;;5031729;28;20028;-74
2023/03/07 07:04:29;;;;;;;4.22;3.83;;;4.70;99.90;;;;;;5040912;28;20344;-74
2023/03/07 07:06:55;;;;;;;21.00;15.32;;;4.60;99.90;;;;;;5022413;28;20432;-73
2023/03/07 07:09:20;;;;;;;4.30;3.90;;;4.60;99.90;;;;;;5037368;28;20024;-74
2023/03/07 07:11:46;;;;;;;37.92;15.77;;;4.60;99.90;;;;;;5038080;28;20116;-74
2023/03/07 07:14:12;;;;;;;5.53;4.25;;;4.60;99.90;;;;;;5033407;28;20381;-75
2023/03/07 07:16:38;;;;;;;5.85;4.32;;;4.50;99.90;;;;;;5032595;28;20399;-74
2023/03/07 07:19:04;;;;;;;5.45;4.65;;;4.60;99.90;;;;;;5033668;28;20126;-74
2023/03/07 07:21:30;;;;;;;4.80;4.07;;;4.70;99.90;;;;;;5036385;28;20060;-74
2023/03/07 07:23:56;;;;;;;4.55;3.92;;;4.70;99.90;;;;;;5036722;28;20514;-73
2023/03/07 07:26:23;;;;;;;933.55;447.90;;;4.80;99.90;;;;;;5032181;28;20431;-74
2023/03/07 07:28:49;;;;;;;26.95;11.32;;;4.90;99.90;;;;;;5021432;28;20581;-74
2023/03/07 07:31:15;;;;;;;4.57;3.88;;;4.80;99.90;;;;;;5020269;28;20480;-73
2023/03/07 07:33:41;;;;;;;4.78;3.85;;;4.80;99.90;;;;;;5035935;28;20437;-73
2023/03/07 07:36:07;;;;;;;4.22;3.80;;;4.80;99.90;;;;;;5036619;28;20031;-74
2023/03/07 07:38:33;;;;;;;4.95;3.88;;;4.70;99.90;;;;;;5032488;28;20064;-74
2023/03/07 07:41:01;;;;;;;5.93;4.20;;;4.80;99.90;;;;;;5039150;28;20523;-73
2023/03/07 07:43:26;;;;;;;6.90;4.57;;;4.90;99.90;;;;;;5033356;28;20151;-73
2023/03/07 07:45:52;;;;;;;4.55;3.85;;;4.90;99.90;;;;;;5036049;28;20104;-74
2023/03/07 07:48:18;;;;;;;4.15;3.60;;;4.90;99.90;;;;;;5031962;28;20299;-73
2023/03/07 07:50:44;;;;;;;4.70;3.75;;;5.00;99.90;;;;;;5026467;28;20036;-74
2023/03/07 07:53:10;;;;;;;4.50;3.20;;;5.20;99.90;;;;;;5035186;28;20041;-74
2023/03/07 07:55:36;;;;;;;4.45;3.88;;;5.20;99.90;;;;;;5039745;28;20037;-74
2023/03/07 07:58:01;;;;;;;7.25;3.78;;;5.20;99.90;;;;;;5020665;28;20173;-73
2023/03/07 08:00:27;;;;;;;5.22;4.03;;;5.30;99.90;;;;;;5020314;28;20029;-73
2023/03/07 08:02:52;;;;;;;4.05;3.65;;;5.30;99.90;;;;;;5036680;28;20090;-74
2023/03/07 08:05:20;;;;;;;3.97;3.28;;;5.40;99.90;;;;;;5051299;28;20090;-73
2023/03/07 08:07:46;;;;;;;3.85;3.28;;;5.70;99.90;;;;;;5035893;28;20585;-74
2023/03/07 08:10:16;;;;;;;5.25;3.47;;;5.80;99.90;;;;;;5037404;28;20039;-74
2023/03/07 08:12:43;;;;;;;7.78;4.53;;;5.90;99.90;;;;;;5033421;28;20037;-73
2023/03/07 08:15:09;;;;;;;4.88;3.85;;;6.00;99.90;;;;;;5032414;28;20186;-73
2023/03/07 08:17:35;;;;;;;3.88;3.13;;;6.00;99.90;;;;;;5032811;28;20492;-73
2023/03/07 08:20:07;;;;;;;3.38;2.65;;;6.00;99.90;;;;;;5032430;28;20025;-72
2023/03/07 08:22:33;;;;;;;4.47;3.45;;;5.90;99.90;;;;;;5029134;28;20598;-72
2023/03/07 08:24:58;;;;;;;3.35;3.00;;;5.90;99.90;;;;;;5037969;28;20198;-75
2023/03/07 08:27:25;;;;;;;5.10;3.40;;;6.00;99.90;;;;;;5029132;28;20028;-72
2023/03/07 08:29:51;;;;;;;5.72;3.83;;;5.90;99.90;;;;;;5030955;28;20090;-75
2023/03/07 08:32:18;;;;;;;4.55;3.65;;;5.90;99.90;;;;;;5029372;28;20161;-74
2023/03/07 08:34:43;;;;;;;4.53;3.47;;;6.00;99.90;;;;;;5022562;28;20855;-73
2023/03/07 08:37:09;;;;;;;6.10;4.75;;;6.10;99.90;;;;;;5021848;28;20033;-75
2023/03/07 08:39:35;;;;;;;4.80;4.32;;;6.10;99.90;;;;;;5019706;28;20017;-75
2023/03/07 08:42:01;;;;;;;5.07;4.47;;;6.20;99.90;;;;;;5023086;28;20762;-75
2023/03/07 08:44:26;;;;;;;6.57;4.32;;;6.50;99.90;;;;;;5022910;28;20116;-75
2023/03/07 08:46:52;;;;;;;5.40;4.47;;;6.80;99.90;;;;;;5025616;28;20035;-75
2023/03/07 08:49:17;;;;;;;4.20;3.45;;;7.00;99.90;;;;;;5031572;28;20021;-75
2023/03/07 08:51:46;;;;;;;4.57;3.80;;;6.70;99.90;;;;;;5032076;28;20045;-75
2023/03/07 08:54:12;;;;;;;3.80;3.40;;;6.80;99.90;;;;;;5039186;28;20048;-75
2023/03/07 08:56:37;;;;;;;4.93;3.63;;;6.60;99.90;;;;;;5033453;28;20060;-74
2023/03/07 08:59:03;;;;;;;4.28;3.88;;;6.70;99.90;;;;;;5034362;28;20033;-76
2023/03/07 09:01:29;;;;;;;4.55;3.30;;;6.80;99.90;;;;;;5038954;28;20438;-74
2023/03/07 09:03:54;;;;;;;4.10;3.03;;;6.90;99.90;;;;;;5026948;28;20037;-74
2023/03/07 09:06:20;;;;;;;3.63;2.70;;;7.00;99.90;;;;;;5014032;28;20107;-74
2023/03/07 09:08:47;;;;;;;3.67;2.40;;;6.70;99.90;;;;;;5033318;28;20104;-74
2023/03/07 09:11:14;;;;;;;3.75;2.75;;;6.80;99.90;;;;;;5008717;28;20543;-74
2023/03/07 09:13:40;;;;;;;3.50;2.17;;;6.70;99.90;;;;;;5007877;28;20029;-74
2023/03/07 09:16:06;;;;;;;3.90;2.88;;;6.60;99.90;;;;;;5028039;28;20335;-74
2023/03/07 09:18:33;;;;;;;4.78;2.80;;;6.70;99.90;;;;;;5030076;28;20041;-73
2023/03/07 09:21:00;;;;;;;3.40;2.60;;;6.80;99.90;;;;;;5031107;28;20028;-73
2023/03/07 09:23:25;;;;;;;3.28;2.30;;;6.80;99.90;;;;;;5032813;28;20026;-75
2023/03/07 09:25:51;;;;;;;3.20;2.67;;;6.90;99.90;;;;;;5033355;28;20094;-74
2023/03/07 09:28:17;;;;;;;4.50;2.85;;;7.00;99.90;;;;;;5010015;28;20033;-75
2023/03/07 09:30:42;;;;;;;5.30;2.80;;;7.30;99.90;;;;;;5023209;28;20033;-74
2023/03/07 09:33:08;;;;;;;4.25;2.42;;;7.40;99.90;;;;;;5037429;28;20036;-74
2023/03/07 09:35:34;;;;;;;3.85;2.53;;;7.60;99.90;;;;;;5035064;28;20025;-75
2023/03/07 09:37:59;;;;;;;3.05;2.45;;;7.80;99.90;;;;;;5033419;28;20033;-74
2023/03/07 09:40:26;;;;;;;4.00;2.83;;;7.90;99.90;;;;;;5031905;28;20112;-74
2023/03/07 09:42:52;;;;;;;4.53;2.75;;;8.00;99.90;;;;;;5034978;28;20076;-74
2023/03/07 09:45:42;;;;;;;3.80;2.80;;;8.10;99.90;;;;;;5030602;28;20115;-74
2023/03/07 09:48:20;;;;;;;4.32;3.13;;;8.30;99.90;;;;;;5034036;28;20561;-75
2023/03/07 09:51:03;;;;;;;5.03;2.88;;;8.50;99.90;;;;;;5037464;28;20025;-74
2023/03/07 09:53:44;;;;;;;4.65;3.33;;;8.40;98.40;;;;;;5034926;28;20064;-74
2023/03/07 09:56:21;;;;;;;5.22;3.75;;;8.70;98.20;;;;;;5034889;28;20444;-74
2023/03/07 09:58:52;;;;;;;5.47;3.90;;;8.80;98.50;;;;;;5023383;28;20449;-74
2023/03/07 10:01:23;;;;;;;4.93;3.63;;;8.80;94.70;;;;;;5034644;28;20068;-74
2023/03/07 10:04:00;;;;;;;5.43;3.53;;;9.00;96.80;;;;;;5017340;28;20825;-74
2023/03/07 10:06:32;;;;;;;4.55;3.55;;;9.00;95.20;;;;;;5022248;28;20033;-75
2023/03/07 10:08:59;;;;;;;5.55;3.45;;;8.80;93.90;;;;;;5019858;28;20480;-75
2023/03/07 10:11:42;;;;;;;5.28;3.30;;;8.40;94.90;;;;;;5022827;28;20377;-75
2023/03/07 10:14:34;;;;;;;5.40;3.55;;;8.50;97.10;;;;;;5022040;28;20079;-74
2023/03/07 10:17:22;;;;;;;7.07;3.65;;;8.60;96.80;;;;;;5039736;28;20112;-74
2023/03/07 10:19:55;;;;;;;5.28;3.65;;;8.40;98.80;;;;;;5000679;28;20091;-73
2023/03/07 10:22:39;;;;;;;6.05;3.40;;;8.20;96.70;;;;;;5039968;28;20036;-74
2023/03/07 10:43:28;;;;;;;3.00;2.22;;;7.60;99.90;;;;;;4683022;28;9999756;-76
2023/03/07 10:46:00;;;;;;;3.97;2.35;;;7.60;99.90;;;;;;5027008;28;20095;-76
2023/03/07 10:48:26;;;;;;;;;;;7.50;99.90;;;;;;5052077;28;20033;-76
2023/03/07 10:51:39;;;;;;;3.15;2.10;;;7.40;98.80;;;;;;5029010;28;19909;-76
2023/03/07 10:54:14;;;;;;;4.03;2.58;;;7.50;99.90;;;;;;5003077;28;20053;-75
2023/03/07 10:56:39;;;;;;;3.45;2.85;;;7.60;99.40;;;;;;5023672;28;20025;-76
2023/03/07 10:59:10;;;;;;;5.80;2.65;;;7.80;99.90;;;;;;5043036;28;20044;-75
2023/03/07 11:01:38;;;;;;;3.35;2.40;;;7.90;99.90;;;;;;5035228;28;20037;-76
2023/03/07 11:04:24;;;;;;;3.05;2.40;;;7.80;99.10;;;;;;5040407;28;20029;-77
2023/03/07 11:06:51;;;;;;;3.63;2.58;;;8.10;99.90;;;;;;5055421;28;20056;-73
2023/03/07 11:09:45;;;;;;;4.25;1.92;;;8.50;99.90;;;;;;5016081;28;20033;-76
2023/03/07 11:12:17;;;;;;;4.40;1.80;;;8.90;96.70;;;;;;5032842;28;20067;-76
2023/03/07 11:14:47;;;;;;;1.88;1.48;;;8.90;93.20;;;;;;5032401;28;20445;-76
2023/03/07 12:26:35;;;;;;;4.30;2.20;;;10.60;74.30;;;;;;4882980;23;20079;-73
2023/03/07 12:29:05;;;;;;;7.53;3.00;;;10.40;79.50;;;;;;4878568;29;20028;-72
2023/03/07 12:31:35;;;;;;;4.35;1.67;;;9.80;82.50;;;;;;4882818;29;20033;-73
2023/03/07 12:34:16;;;;;;;2.70;1.35;;;9.70;84.00;;;;;;4876644;29;20043;-73
2023/03/07 12:36:44;;;;;;;3.15;1.20;;;9.80;81.40;;;;;;4862820;29;20119;-73
2023/03/07 12:39:13;;;;;;;1.92;1.05;;;9.80;78.70;;;;;;4870223;29;20534;-73
2023/03/07 12:41:51;;;;;;;6.35;1.45;;;9.90;76.10;;;;;;4868640;29;20045;-73
2023/03/07 12:44:33;;;;;;;4.28;1.10;;;10.10;77.50;;;;;;4865845;29;20041;-73
2023/03/07 12:47:18;;;;;;;4.28;1.35;;;10.10;73.50;;;;;;4870120;29;20056;-72
2023/03/07 12:50:02;;;;;;;2.88;1.15;;;9.80;79.20;;;;;;4888671;29;20719;-74
2023/03/07 12:52:43;;;;;;;2.88;1.80;;;9.90;78.80;;;;;;4880621;29;20557;-74
2023/03/07 12:55:23;;;;;;;2.78;2.20;;;9.90;83.30;;;;;;4865811;29;20229;-74
2023/03/07 12:58:18;;;;;;;4.93;2.20;;;9.90;81.30;;;;;;4870490;29;20485;-74
2023/03/07 13:00:48;;;;;;;4.90;3.05;;;9.90;86.80;;;;;;4866713;29;20037;-73
2023/03/07 13:03:23;;;;;;;7.18;4.03;;;9.70;83.70;;;;;;4878873;29;20040;-74
2023/03/07 13:05:49;;;;;;;8.60;4.13;;;9.70;83.80;;;;;;4861432;29;20881;-73
2023/03/07 13:08:21;;;;;;;4.30;1.98;;;10.00;83.30;;;;;;4871292;29;20279;-74
2023/03/07 13:10:47;;;;;;;2.65;1.63;;;10.00;77.80;;;;;;4872015;29;20033;-74
2023/03/07 13:13:42;;;;;;;1.75;1.50;;;10.20;79.70;;;;;;4867977;29;20033;-74
2023/03/07 13:16:11;;;;;;;2.05;1.70;;;10.10;78.20;;;;;;4862776;29;20590;-76
2023/03/07 13:18:37;;;;;;;4.72;1.88;;;10.30;82.00;;;;;;4866788;29;20567;-74
2023/03/07 13:21:31;;;;;;;6.18;2.00;;;10.40;75.50;;;;;;4867645;29;20033;-75
2023/03/07 13:24:36;;;;;;;2.72;1.70;;;10.60;83.30;;;;;;4864397;29;20139;-75
2023/03/07 13:27:12;;;;;;;4.65;1.80;;;10.90;77.00;;;;;;4866278;29;20049;-74
2023/03/07 13:30:08;;;;;;;4.13;1.70;;;11.10;74.20;;;;;;4868993;29;20495;-74
2023/03/07 13:32:49;;;;;;;2.22;1.58;;;11.20;72.00;;;;;;4883840;29;20071;-74
2023/03/07 13:35:27;;;;;;;2.70;1.70;;;10.90;80.50;;;;;;4874112;29;20038;-74
2023/03/07 13:37:57;;;;;;;2.08;1.38;;;10.90;72.20;;;;;;4870750;29;20073;-75
2023/03/07 13:40:26;;;;;;;4.03;1.60;;;10.80;73.10;;;;;;4872818;29;20039;-74
2023/03/07 13:42:52;;;;;;;2.53;1.50;;;10.40;72.10;;;;;;4866129;29;20237;-74
2023/03/07 13:45:36;;;;;;;5.43;1.40;;;10.00;79.30;;;;;;4874199;29;20436;-75
2023/03/07 13:48:03;;;;;;;5.20;1.60;;;9.80;85.00;;;;;;4879838;29;20040;-75
2023/03/07 13:50:35;;;;;;;3.15;1.50;;;9.50;89.70;;;;;;4878362;29;20541;-74
2023/03/07 13:53:13;;;;;;;3.03;1.88;;;9.20;90.10;;;;;;4870995;29;20074;-75
2023/03/07 13:55:45;;;;;;;2.63;1.40;;;9.20;91.90;;;;;;4875352;29;20571;-74
2023/03/07 13:58:31;;;;;;;2.45;1.60;;;9.00;89.50;;;;;;4873188;29;20531;-75
2023/03/07 14:01:01;;;;;;;4.88;1.90;;;9.10;90.30;;;;;;4877284;29;20496;-74
2023/03/07 14:03:51;;;;;;;5.85;1.52;;;9.10;90.50;;;;;;4878497;29;20393;-75
2023/03/07 14:06:27;;;;;;;4.15;1.85;;;9.10;89.90;;;;;;4876307;29;20139;-74
2023/03/07 14:08:53;;;;;;;1.77;1.42;;;9.00;92.40;;;;;;4875078;29;20037;-74
2023/03/07 14:11:43;;;;;;;1.75;1.23;;;8.90;91.60;;;;;;4875930;29;20131;-73
2023/03/07 14:14:18;;;;;;;2.20;1.17;;;8.90;92.30;;;;;;4873760;29;20063;-74
2023/03/07 14:17:01;;;;;;;1.90;1.30;;;8.80;91.80;;;;;;4876970;29;20039;-74
2023/03/07 14:19:46;;;;;;;2.13;1.40;;;8.80;91.50;;;;;;4871237;29;20037;-74
2023/03/07 14:22:30;;;;;;;3.60;1.55;;;8.80;87.20;;;;;;4875456;29;20048;-74
2023/03/07 14:24:59;;;;;;;3.65;1.38;;;8.50;90.80;;;;;;4875853;29;20112;-77
2023/03/07 14:27:24;;;;;;;3.53;1.63;;;8.40;92.40;;;;;;4869381;29;20662;-72
2023/03/07 14:29:55;;;;;;;2.85;1.80;;;8.10;92.40;;;;;;4875382;29;20036;-76
2023/03/07 14:32:39;;;;;;;5.07;2.20;;;7.80;95.60;;;;;;4891512;29;20032;-75